Dracena, Brazil
Current Conditions -  °F | °C
As of 10:00 AM on Friday 28 Nov 2014 (Local Time) from SBCG Reporting Station
Few Clouds Few Clouds  
Wind Chill: 84°   Ceiling: Unl
Heat Index: 87°   Visibility: 6mi
Dew Point: 68°   Wind: 7mph
Humidity: 58%   Direction: 60°ENE
Pressure: 29.94"   Gusts: NA
Location:  22.23°S, 54.82°W
Report Text: SBCG 281300Z 06006KT 9999 FEW046 29/20 Q1014
Loading
Personal Weather Stations






























Interactive Weather Map New forecast layout! Learn more

10-Day Weather Forecast

Advertisements
Track Severe Weather on mobile